createdAt,value
2023-05-22T00:00:43.956Z,2.67
2023-05-22T00:01:44.417Z,2.67
2023-05-22T00:02:45.011Z,2.67
2023-05-22T00:03:45.274Z,2.66
2023-05-22T00:04:45.783Z,2.62
2023-05-22T00:05:46.159Z,2.61
2023-05-22T00:06:46.615Z,2.60
2023-05-22T00:07:47.066Z,2.59
2023-05-22T00:08:47.485Z,2.61
2023-05-22T00:09:47.918Z,2.62
2023-05-22T00:10:48.366Z,2.62
2023-05-22T00:11:48.826Z,2.60
2023-05-22T00:12:49.253Z,2.62
2023-05-22T00:13:49.689Z,2.62
2023-05-22T00:14:50.132Z,2.67
2023-05-22T00:15:50.574Z,2.69
2023-05-22T00:16:51.071Z,2.68
2023-05-22T00:17:51.526Z,2.66
2023-05-22T00:18:51.932Z,2.66
2023-05-22T00:19:52.343Z,2.66
2023-05-22T00:20:52.772Z,2.68
2023-05-22T00:21:53.228Z,2.67
2023-05-22T00:22:53.659Z,2.69
2023-05-22T00:23:54.098Z,2.71
2023-05-22T00:24:54.538Z,2.71
2023-05-22T00:25:54.981Z,2.68
2023-05-22T00:26:55.434Z,2.74
2023-05-22T00:27:55.881Z,2.76
2023-05-22T00:28:56.303Z,2.73
2023-05-22T00:29:56.751Z,2.72
2023-05-22T00:30:57.207Z,2.72
2023-05-22T00:31:57.643Z,2.68
2023-05-22T00:32:58.090Z,2.67
2023-05-22T00:33:58.552Z,2.68
2023-05-22T00:34:58.948Z,2.71
2023-05-22T00:35:59.394Z,2.69
2023-05-22T00:36:59.836Z,2.71
2023-05-22T00:38:00.272Z,2.69
2023-05-22T00:39:00.710Z,2.72
2023-05-22T00:40:01.216Z,2.71
2023-05-22T00:41:01.598Z,2.68
2023-05-22T00:42:02.053Z,2.69
2023-05-22T00:43:02.478Z,2.71
2023-05-22T00:44:02.929Z,2.73
2023-05-22T00:45:03.358Z,2.74
2023-05-22T00:46:03.816Z,2.73
2023-05-22T00:47:04.251Z,2.71
2023-05-22T00:48:04.739Z,2.65
2023-05-22T00:49:05.128Z,2.65
2023-05-22T00:50:05.572Z,2.65
2023-05-22T00:51:06.005Z,2.61
2023-05-22T00:52:07.249Z,2.58
2023-05-22T00:53:06.885Z,2.52
2023-05-22T00:54:07.371Z,2.57
2023-05-22T00:55:07.767Z,2.58
2023-05-22T00:56:08.219Z,2.58
2023-05-22T00:57:08.659Z,2.57
2023-05-22T00:58:09.084Z,2.59
2023-05-22T00:59:09.545Z,2.59
2023-05-22T01:00:09.965Z,2.61
2023-05-22T01:01:10.407Z,2.58
2023-05-22T01:02:10.967Z,2.58
2023-05-22T01:03:11.345Z,2.54
2023-05-22T01:04:11.764Z,2.50
2023-05-22T01:05:12.221Z,2.51
2023-05-22T01:06:12.634Z,2.52
2023-05-22T01:07:13.064Z,2.48
2023-05-22T01:08:13.498Z,2.47
2023-05-22T01:09:13.928Z,2.41
2023-05-22T01:10:14.373Z,2.34
2023-05-22T01:11:14.807Z,2.25
2023-05-22T01:12:15.268Z,2.33
2023-05-22T01:13:15.702Z,2.36
2023-05-22T01:14:16.130Z,2.33
2023-05-22T01:15:16.573Z,2.35
2023-05-22T01:16:17.033Z,2.34
2023-05-22T01:17:17.480Z,2.35
2023-05-22T01:18:17.895Z,2.36
2023-05-22T01:19:18.403Z,2.33
2023-05-22T01:20:18.817Z,2.37
2023-05-22T01:21:19.217Z,2.48
2023-05-22T01:22:19.689Z,2.49
2023-05-22T01:23:20.093Z,2.53
2023-05-22T01:24:20.541Z,2.56
2023-05-22T01:25:20.970Z,2.52
2023-05-22T01:26:21.417Z,2.49
2023-05-22T01:27:21.880Z,2.47
2023-05-22T01:28:22.298Z,2.45
2023-05-22T01:29:22.762Z,2.50
2023-05-22T01:30:23.176Z,2.57
2023-05-22T01:31:23.613Z,2.60
2023-05-22T01:32:24.124Z,2.68
2023-05-22T01:33:24.560Z,2.72
2023-05-22T01:34:24.935Z,2.67
2023-05-22T01:35:25.380Z,2.73
2023-05-22T01:36:25.822Z,2.74
2023-05-22T01:37:26.276Z,2.71
2023-05-22T01:38:26.695Z,2.74
2023-05-22T01:39:27.131Z,2.73
2023-05-22T01:40:27.576Z,2.73
2023-05-22T01:41:28.024Z,2.76
2023-05-22T01:42:28.474Z,2.76
2023-05-22T01:43:28.898Z,2.78
2023-05-22T01:44:29.349Z,2.76
2023-05-22T01:45:29.827Z,2.73
2023-05-22T01:46:30.245Z,2.68
2023-05-22T01:47:30.709Z,2.65
2023-05-22T01:48:31.100Z,2.65
2023-05-22T01:49:31.538Z,2.66
2023-05-22T01:50:31.985Z,2.65
2023-05-22T01:51:32.426Z,2.68
2023-05-22T01:52:32.883Z,2.71
2023-05-22T01:53:33.295Z,2.72
2023-05-22T01:54:33.739Z,2.71
2023-05-22T01:55:34.172Z,2.69
2023-05-22T01:56:34.666Z,2.73
2023-05-22T01:57:35.076Z,2.74
2023-05-22T01:58:35.503Z,2.77
2023-05-22T01:59:35.934Z,2.74
2023-05-22T02:00:36.449Z,2.73
2023-05-22T02:01:36.871Z,2.72
2023-05-22T02:02:37.373Z,2.69
2023-05-22T02:03:37.810Z,2.68
2023-05-22T02:04:38.130Z,2.71
2023-05-22T02:05:38.575Z,2.66
2023-05-22T02:06:39.010Z,2.65
2023-05-22T02:07:39.474Z,2.65
2023-05-22T02:08:39.891Z,2.66
2023-05-22T02:09:40.339Z,2.69
2023-05-22T02:10:40.995Z,2.71
2023-05-22T02:11:41.214Z,2.71
2023-05-22T02:12:41.677Z,2.71
2023-05-22T02:13:42.087Z,2.69
2023-05-22T02:14:42.534Z,2.71
2023-05-22T02:15:42.994Z,2.71
2023-05-22T02:16:43.413Z,2.73
2023-05-22T02:17:43.911Z,2.74
2023-05-22T02:18:44.332Z,2.71
2023-05-22T02:19:44.723Z,2.69
2023-05-22T02:20:45.170Z,2.67
2023-05-22T02:21:45.605Z,2.68
2023-05-22T02:22:46.089Z,2.71
2023-05-22T02:23:46.485Z,2.74
2023-05-22T02:24:46.924Z,2.71
2023-05-22T02:25:47.362Z,2.69
2023-05-22T02:26:47.818Z,2.67
2023-05-22T02:27:48.264Z,2.65
2023-05-22T02:28:48.686Z,2.61
2023-05-22T02:29:49.122Z,2.61
2023-05-22T02:30:49.598Z,2.64
2023-05-22T02:31:50.037Z,2.65
2023-05-22T02:32:50.495Z,2.65
2023-05-22T02:33:50.885Z,2.59
2023-05-22T02:34:52.874Z,2.44
2023-05-22T02:35:51.758Z,2.30
2023-05-22T02:36:52.203Z,2.28
2023-05-22T02:37:52.666Z,2.34
2023-05-22T02:38:53.078Z,2.42
2023-05-22T02:39:53.517Z,2.44
2023-05-22T02:40:53.961Z,2.44
2023-05-22T02:41:54.407Z,2.37
2023-05-22T02:42:54.860Z,2.28
2023-05-22T02:43:55.271Z,2.20
2023-05-22T02:44:55.719Z,2.15
2023-05-22T02:45:56.159Z,1.99
2023-05-22T02:46:56.612Z,1.84
2023-05-22T02:47:57.092Z,1.73
2023-05-22T02:48:57.470Z,1.63
2023-05-22T02:49:57.948Z,1.56
2023-05-22T02:50:58.349Z,1.49
2023-05-22T02:51:58.786Z,1.42
2023-05-22T02:52:59.252Z,1.40
2023-05-22T02:53:59.662Z,1.42
2023-05-22T02:55:00.135Z,1.42
2023-05-22T02:56:00.551Z,1.38
2023-05-22T02:57:00.984Z,1.34
2023-05-22T02:58:01.449Z,1.29
2023-05-22T02:59:01.862Z,1.25
2023-05-22T03:00:02.301Z,1.26
2023-05-22T03:01:02.742Z,1.33
2023-05-22T03:02:03.280Z,1.37
2023-05-22T03:03:03.690Z,1.36
2023-05-22T03:04:04.101Z,1.32
2023-05-22T03:05:04.499Z,1.31
2023-05-22T03:06:04.945Z,1.28
2023-05-22T03:07:05.383Z,1.26
2023-05-22T03:08:05.830Z,1.27
2023-05-22T03:09:06.258Z,1.30
2023-05-22T03:10:06.694Z,1.27
2023-05-22T03:11:07.135Z,1.26
2023-05-22T03:12:07.568Z,1.33
2023-05-22T03:13:08.030Z,1.49
2023-05-22T03:14:08.445Z,1.46
2023-05-22T03:15:08.887Z,1.42
2023-05-22T03:16:09.350Z,1.43
2023-05-22T03:17:09.759Z,1.47
2023-05-22T03:18:10.257Z,1.43
2023-05-22T03:19:10.693Z,1.43
2023-05-22T03:20:11.090Z,1.39
2023-05-22T03:21:11.518Z,1.37
2023-05-22T03:22:11.960Z,1.33
2023-05-22T03:23:12.415Z,1.27
2023-05-22T03:24:12.848Z,1.23
2023-05-22T03:25:13.278Z,1.22
2023-05-22T03:26:13.730Z,1.21
2023-05-22T03:27:14.148Z,1.22
2023-05-22T03:28:14.622Z,1.23
2023-05-22T03:29:15.128Z,1.25
2023-05-22T03:30:15.473Z,1.26
2023-05-22T03:31:15.905Z,1.24
2023-05-22T03:32:16.348Z,1.25
2023-05-22T03:33:16.858Z,1.26
2023-05-22T03:34:17.246Z,1.26
2023-05-22T03:35:17.662Z,1.23
2023-05-22T03:36:18.100Z,1.24
2023-05-22T03:37:18.545Z,1.25
2023-05-22T03:38:19.002Z,1.26
2023-05-22T03:39:19.428Z,1.24
2023-05-22T03:40:19.856Z,1.19
2023-05-22T03:41:20.291Z,1.16
2023-05-22T03:42:20.734Z,1.14
2023-05-22T03:43:21.219Z,1.12
2023-05-22T03:44:21.625Z,1.11
2023-05-22T03:45:22.069Z,1.09
2023-05-22T03:46:22.683Z,1.05
2023-05-22T03:47:22.972Z,1.02
2023-05-22T03:48:23.391Z,1.01
2023-05-22T03:49:23.809Z,1.00
2023-05-22T03:50:24.249Z,0.98
2023-05-22T03:51:24.678Z,0.99
2023-05-22T03:52:25.132Z,1.04
2023-05-22T03:53:25.589Z,1.05
2023-05-22T03:54:26.004Z,1.03
2023-05-22T03:55:26.439Z,1.03
2023-05-22T03:56:26.889Z,1.02
2023-05-22T03:57:27.313Z,1.03
2023-05-22T03:58:27.816Z,1.11
2023-05-22T03:59:28.194Z,1.15
2023-05-22T04:00:28.631Z,1.11
2023-05-22T04:01:29.070Z,1.08
2023-05-22T04:02:29.586Z,1.07
2023-05-22T04:03:30.072Z,1.15
2023-05-22T04:04:30.385Z,1.21
2023-05-22T04:05:30.876Z,1.15
2023-05-22T04:06:31.264Z,1.11
2023-05-22T04:07:31.701Z,1.08
2023-05-22T04:08:32.175Z,1.05
2023-05-22T04:09:32.588Z,1.02
2023-05-22T04:10:33.039Z,1.02
2023-05-22T04:11:33.462Z,1.03
2023-05-22T04:12:33.905Z,1.08
2023-05-22T04:13:34.366Z,1.08
2023-05-22T04:14:34.791Z,1.05
2023-05-22T04:15:35.247Z,0.99
2023-05-22T04:16:35.664Z,0.97
2023-05-22T04:17:36.136Z,0.95
2023-05-22T04:18:36.589Z,0.88
2023-05-22T04:19:37.016Z,0.80
2023-05-22T04:20:37.625Z,0.77
2023-05-22T04:21:37.862Z,0.73
2023-05-22T04:22:38.302Z,0.71
2023-05-22T04:23:38.789Z,0.72
2023-05-22T04:24:39.184Z,0.70
2023-05-22T04:25:39.628Z,0.72
2023-05-22T04:26:42.355Z,0.71
2023-05-22T04:27:40.506Z,0.70
2023-05-22T04:28:40.971Z,0.71
2023-05-22T04:29:41.387Z,0.74
2023-05-22T04:30:42.010Z,0.74
2023-05-22T04:31:42.382Z,0.71
2023-05-22T04:32:42.774Z,0.70
2023-05-22T04:33:43.166Z,0.70
2023-05-22T04:34:43.591Z,0.71
2023-05-22T04:35:44.027Z,0.75
2023-05-22T04:36:44.476Z,0.78
2023-05-22T04:37:44.923Z,0.84
2023-05-22T04:38:45.383Z,0.89
2023-05-22T04:39:45.789Z,0.98
2023-05-22T04:40:46.244Z,1.05
2023-05-22T04:41:46.683Z,1.10
2023-05-22T04:42:47.137Z,1.13
2023-05-22T04:43:47.579Z,1.15
2023-05-22T04:44:48.003Z,1.12
2023-05-22T04:45:48.455Z,1.13
2023-05-22T04:46:48.927Z,1.19
2023-05-22T04:47:49.379Z,1.22
2023-05-22T04:48:49.800Z,1.26
2023-05-22T04:49:50.209Z,1.24
2023-05-22T04:50:50.664Z,1.22
2023-05-22T04:51:51.089Z,1.20
2023-05-22T04:52:51.533Z,1.22
2023-05-22T04:53:52.072Z,1.23
2023-05-22T04:54:52.439Z,1.23
2023-05-22T04:55:52.863Z,1.25
2023-05-22T04:56:53.312Z,1.28
2023-05-22T04:57:53.745Z,1.32
2023-05-22T04:58:54.214Z,1.33
2023-05-22T04:59:54.629Z,1.34
2023-05-22T05:00:55.093Z,1.35
2023-05-22T05:01:55.514Z,1.36
2023-05-22T05:02:55.966Z,1.35
2023-05-22T05:03:56.450Z,1.34
2023-05-22T05:04:56.845Z,1.33
2023-05-22T05:05:57.282Z,1.34
2023-05-22T05:06:57.734Z,1.33
2023-05-22T05:07:58.172Z,1.31
2023-05-22T05:08:58.643Z,1.32
2023-05-22T05:09:59.062Z,1.34
2023-05-22T05:10:59.506Z,1.37
2023-05-22T05:11:59.979Z,1.40
2023-05-22T05:13:00.396Z,1.41
2023-05-22T05:14:00.859Z,1.40
2023-05-22T05:15:01.298Z,1.42
2023-05-22T05:16:01.754Z,1.41
2023-05-22T05:17:02.233Z,1.37
2023-05-22T05:18:02.661Z,1.36
2023-05-22T05:19:03.140Z,1.33
2023-05-22T05:20:03.517Z,1.26
2023-05-22T05:21:03.947Z,1.29
2023-05-22T05:22:04.388Z,1.31
2023-05-22T05:23:04.835Z,1.33
2023-05-22T05:24:05.303Z,1.31
2023-05-22T05:25:05.743Z,1.23
2023-05-22T05:26:06.175Z,1.15
2023-05-22T05:27:06.618Z,1.14
2023-05-22T05:28:07.058Z,1.17
2023-05-22T05:29:07.533Z,1.22
2023-05-22T05:30:07.956Z,1.23
2023-05-22T05:31:08.406Z,1.25
2023-05-22T05:32:08.868Z,1.29
2023-05-22T05:33:09.306Z,1.29
2023-05-22T05:34:09.767Z,1.23
2023-05-22T05:35:10.190Z,1.14
2023-05-22T05:36:10.641Z,1.11
2023-05-22T05:37:11.083Z,1.11
2023-05-22T05:38:11.518Z,1.09
2023-05-22T05:39:11.993Z,1.12
2023-05-22T05:40:12.409Z,1.11
2023-05-22T05:41:12.862Z,1.12
2023-05-22T05:42:13.311Z,1.15
2023-05-22T05:43:13.759Z,1.14
2023-05-22T05:44:14.230Z,1.18
2023-05-22T05:45:14.654Z,1.17
2023-05-22T05:46:15.124Z,1.17
2023-05-22T05:47:15.540Z,1.13
2023-05-22T05:48:15.985Z,1.08
2023-05-22T05:49:16.458Z,1.06
2023-05-22T05:50:16.877Z,1.03
2023-05-22T05:51:17.332Z,1.02
2023-05-22T05:52:17.777Z,1.04
2023-05-22T05:53:18.223Z,1.08
2023-05-22T05:54:18.701Z,1.11
2023-05-22T05:55:19.131Z,1.11
2023-05-22T05:56:19.560Z,1.11
2023-05-22T05:57:20.024Z,1.05
2023-05-22T05:58:20.462Z,1.03
2023-05-22T05:59:20.931Z,1.01
2023-05-22T06:00:21.356Z,1.02
2023-05-22T06:01:21.801Z,1.02
2023-05-22T06:02:22.355Z,1.00
2023-05-22T06:03:22.737Z,0.99
2023-05-22T06:04:23.162Z,1.01
2023-05-22T06:05:23.674Z,0.98
2023-05-22T06:06:24.039Z,0.97
2023-05-22T06:07:24.556Z,1.00
2023-05-22T06:08:24.935Z,1.14
2023-05-22T06:09:25.422Z,1.22
2023-05-22T06:10:25.840Z,1.12
2023-05-22T06:11:26.293Z,1.03
2023-05-22T06:12:26.726Z,1.00
2023-05-22T06:13:27.187Z,0.98
2023-05-22T06:14:27.654Z,0.98
2023-05-22T06:15:28.076Z,1.01
2023-05-22T06:16:28.552Z,1.02
2023-05-22T06:17:28.993Z,1.08
2023-05-22T06:18:29.420Z,1.04
2023-05-22T06:19:30.048Z,0.97
2023-05-22T06:20:30.315Z,0.92
2023-05-22T06:21:30.767Z,0.92
2023-05-22T06:22:31.213Z,0.90
2023-05-22T06:23:31.664Z,0.88
2023-05-22T06:24:32.138Z,0.90
2023-05-22T06:25:32.564Z,0.93
2023-05-22T06:26:33.014Z,0.93
2023-05-22T06:27:33.463Z,0.92
2023-05-22T06:28:33.902Z,0.93
2023-05-22T06:29:34.384Z,0.92
2023-05-22T06:30:39.989Z,0.98
2023-05-22T06:31:35.305Z,0.97
2023-05-22T06:32:35.950Z,0.93
2023-05-22T06:33:36.250Z,0.91
2023-05-22T06:34:36.634Z,0.90
2023-05-22T06:35:37.059Z,0.88
2023-05-22T06:36:37.529Z,0.88
2023-05-22T06:37:37.951Z,0.86
2023-05-22T06:38:38.409Z,0.84
2023-05-22T06:39:38.890Z,0.84
2023-05-22T06:40:39.585Z,0.79
2023-05-22T06:41:39.751Z,0.79
2023-05-22T06:42:40.198Z,0.82
2023-05-22T06:43:40.653Z,0.85
2023-05-22T06:44:41.139Z,0.82
2023-05-22T06:45:41.586Z,0.78
2023-05-22T06:46:42.007Z,0.78
2023-05-22T06:47:42.490Z,0.81
2023-05-22T06:48:42.908Z,0.83
2023-05-22T06:49:43.376Z,0.85
2023-05-22T06:50:43.803Z,0.84
2023-05-22T06:51:44.254Z,0.84
2023-05-22T06:52:44.707Z,0.84
2023-05-22T06:53:45.161Z,0.84
2023-05-22T06:54:45.631Z,0.81
2023-05-22T06:55:46.079Z,0.85
2023-05-22T06:56:46.507Z,0.90
2023-05-22T06:57:46.962Z,0.89
2023-05-22T06:58:47.424Z,0.87
2023-05-22T06:59:47.897Z,0.86
2023-05-22T07:00:48.349Z,0.88
2023-05-22T07:01:48.872Z,0.92
2023-05-22T07:02:49.267Z,0.93
2023-05-22T07:03:49.674Z,0.95
2023-05-22T07:04:50.153Z,0.99
2023-05-22T07:05:50.603Z,0.98
2023-05-22T07:06:51.018Z,1.00
2023-05-22T07:07:51.477Z,0.98
2023-05-22T07:08:51.924Z,0.98
2023-05-22T07:09:52.404Z,1.01
2023-05-22T07:10:52.826Z,1.08
2023-05-22T07:11:53.284Z,1.08
2023-05-22T07:12:53.735Z,1.02
2023-05-22T07:13:54.193Z,0.95
2023-05-22T07:14:54.691Z,0.95
2023-05-22T07:15:55.092Z,0.95
2023-05-22T07:16:55.556Z,0.98
2023-05-22T07:17:56.080Z,1.00
2023-05-22T07:18:56.532Z,1.02
2023-05-22T07:19:56.953Z,1.01
2023-05-22T07:20:57.354Z,1.02
2023-05-22T07:21:57.810Z,1.05
2023-05-22T07:22:58.524Z,1.05
2023-05-22T07:23:58.717Z,1.05
2023-05-22T07:24:59.206Z,1.07
2023-05-22T07:25:59.637Z,1.01
2023-05-22T07:27:00.111Z,1.02
2023-05-22T07:28:00.536Z,1.02
2023-05-22T07:29:00.986Z,0.97
2023-05-22T07:30:01.471Z,0.93
2023-05-22T07:31:01.911Z,0.95
2023-05-22T07:32:02.404Z,0.95
2023-05-22T07:33:02.837Z,0.98
2023-05-22T07:34:03.264Z,1.03
2023-05-22T07:35:03.748Z,1.01
2023-05-22T07:36:04.178Z,0.97
2023-05-22T07:37:04.640Z,0.95
2023-05-22T07:38:05.110Z,0.90
2023-05-22T07:39:05.641Z,0.84
2023-05-22T07:40:06.043Z,0.79
2023-05-22T07:41:06.477Z,0.75
2023-05-22T07:42:06.973Z,0.72
2023-05-22T07:43:07.401Z,0.73
2023-05-22T07:44:07.891Z,0.73
2023-05-22T07:45:08.341Z,0.71
2023-05-22T07:46:08.808Z,0.71
2023-05-22T07:47:09.247Z,0.75
2023-05-22T07:48:09.807Z,0.80
2023-05-22T07:49:10.172Z,0.80
2023-05-22T07:50:10.652Z,0.79
2023-05-22T07:51:11.137Z,0.79
2023-05-22T07:52:11.565Z,0.79
2023-05-22T07:53:12.007Z,0.80
2023-05-22T07:54:12.464Z,0.83
2023-05-22T07:55:12.955Z,0.86
2023-05-22T07:56:13.424Z,0.89
2023-05-22T07:57:13.852Z,0.85
2023-05-22T07:58:14.322Z,0.81
2023-05-22T07:59:14.781Z,0.77
2023-05-22T08:00:15.279Z,0.77
2023-05-22T08:01:15.761Z,0.77
2023-05-22T08:02:16.241Z,0.75
2023-05-22T08:03:17.526Z,0.78
2023-05-22T08:04:17.288Z,0.82
2023-05-22T08:05:17.613Z,0.83
2023-05-22T08:06:18.020Z,0.84
2023-05-22T08:07:18.477Z,0.84
2023-05-22T08:08:18.928Z,0.87
2023-05-22T08:09:19.388Z,0.89
2023-05-22T08:10:19.874Z,0.89
2023-05-22T08:11:20.318Z,0.94
2023-05-22T08:12:20.767Z,0.88
2023-05-22T08:13:21.229Z,0.92
2023-05-22T08:14:21.701Z,0.93
2023-05-22T08:15:22.187Z,0.93
2023-05-22T08:16:22.698Z,0.92
2023-05-22T08:17:23.163Z,0.97
2023-05-22T08:18:23.546Z,0.98
2023-05-22T08:19:24.205Z,1.00
2023-05-22T08:20:24.553Z,1.02
2023-05-22T08:21:24.956Z,1.04
2023-05-22T08:22:25.408Z,1.05
2023-05-22T08:23:25.870Z,1.04
2023-05-22T08:24:26.331Z,1.02
2023-05-22T08:25:26.825Z,1.00
2023-05-22T08:26:27.253Z,1.02
2023-05-22T08:27:27.733Z,1.02
2023-05-22T08:28:28.186Z,1.00
2023-05-22T08:29:28.654Z,0.90
2023-05-22T08:30:29.143Z,0.74
2023-05-22T08:31:29.746Z,0.74
2023-05-22T08:32:31.380Z,0.72
2023-05-22T08:33:30.529Z,0.73
2023-05-22T08:34:30.989Z,0.72
2023-05-22T08:35:31.483Z,0.69
2023-05-22T08:36:31.925Z,0.70
2023-05-22T08:37:32.395Z,0.74
2023-05-22T08:38:32.868Z,0.77
2023-05-22T08:39:33.324Z,0.78
2023-05-22T08:40:33.819Z,0.78
2023-05-22T08:41:34.258Z,0.78
2023-05-22T08:42:34.722Z,0.79
2023-05-22T08:43:35.192Z,0.81
2023-05-22T08:44:35.804Z,0.78
2023-05-22T08:45:36.157Z,0.74
2023-05-22T08:46:36.645Z,0.75
2023-05-22T08:47:37.149Z,0.79
2023-05-22T08:48:37.526Z,0.77
2023-05-22T08:49:38.002Z,0.73
2023-05-22T08:50:38.705Z,0.73
2023-05-22T08:51:38.927Z,0.77
2023-05-22T08:52:39.390Z,0.77
2023-05-22T08:53:39.868Z,0.79
2023-05-22T08:54:40.329Z,0.77
2023-05-22T08:55:40.844Z,0.74
2023-05-22T08:56:52.853Z,0.70
2023-05-22T08:57:41.747Z,0.71
2023-05-22T08:58:42.215Z,0.76
2023-05-22T08:59:42.686Z,0.76
2023-05-22T09:00:43.428Z,0.72
2023-05-22T09:01:43.758Z,0.70
2023-05-22T09:02:44.149Z,0.71
2023-05-22T09:03:44.657Z,0.73
2023-05-22T09:04:45.044Z,0.75
2023-05-22T09:05:45.594Z,0.78
2023-05-22T09:06:45.986Z,0.76
2023-05-22T09:07:46.463Z,0.72
2023-05-22T09:08:47.555Z,0.72
2023-05-22T09:09:47.424Z,0.70
2023-05-22T09:10:47.923Z,0.66
2023-05-22T09:11:48.374Z,0.62
2023-05-22T09:12:48.819Z,0.61
2023-05-22T09:13:49.300Z,0.64
2023-05-22T09:14:49.761Z,0.67
2023-05-22T09:15:50.259Z,0.71
2023-05-22T09:16:50.741Z,0.71
2023-05-22T09:17:51.209Z,0.68
2023-05-22T09:18:51.673Z,0.64
2023-05-22T09:19:52.115Z,0.64
2023-05-22T09:20:52.598Z,0.64
2023-05-22T09:21:53.071Z,0.63
2023-05-22T09:22:53.520Z,0.64
2023-05-22T09:23:54.121Z,0.66
2023-05-22T09:24:54.468Z,0.59
2023-05-22T09:25:54.977Z,0.56
2023-05-22T09:26:55.404Z,0.56
2023-05-22T09:27:55.880Z,0.57
2023-05-22T09:28:56.361Z,0.58
2023-05-22T09:29:56.860Z,0.57
2023-05-22T09:30:57.375Z,0.61
2023-05-22T09:31:57.799Z,0.60
2023-05-22T09:32:58.311Z,0.56
2023-05-22T09:33:58.731Z,0.60
2023-05-22T09:34:59.197Z,0.62
2023-05-22T09:35:59.692Z,0.64
2023-05-22T09:37:00.143Z,0.62
2023-05-22T09:38:00.621Z,0.64
2023-05-22T09:39:01.088Z,0.66
2023-05-22T09:40:01.563Z,0.64
2023-05-22T09:41:02.060Z,0.59
2023-05-22T09:42:02.522Z,0.58
2023-05-22T09:43:02.985Z,0.56
2023-05-22T09:44:03.464Z,0.54
2023-05-22T09:45:03.952Z,0.54
2023-05-22T09:46:04.527Z,0.55
2023-05-22T09:47:04.888Z,0.57
2023-05-22T09:48:05.429Z,0.59
2023-05-22T09:49:05.846Z,0.63
2023-05-22T09:50:06.375Z,0.66
2023-05-22T09:51:06.821Z,0.68
2023-05-22T09:52:07.288Z,0.66
2023-05-22T09:53:07.766Z,0.66
2023-05-22T09:54:08.230Z,0.64
2023-05-22T09:55:08.781Z,0.60
2023-05-22T09:56:09.202Z,0.59
2023-05-22T09:57:09.658Z,0.58
2023-05-22T09:58:10.130Z,0.58
2023-05-22T09:59:10.606Z,0.57
2023-05-22T10:00:11.094Z,0.55
2023-05-22T10:01:11.577Z,0.54
2023-05-22T10:02:12.072Z,0.53
2023-05-22T10:03:12.576Z,0.53
2023-05-22T10:04:13.093Z,0.54
2023-05-22T10:05:13.470Z,0.53
2023-05-22T10:06:13.981Z,0.53
2023-05-22T10:07:14.432Z,0.52
2023-05-22T10:08:14.908Z,0.52
2023-05-22T10:09:16.858Z,0.51
2023-05-22T10:10:15.872Z,0.52
2023-05-22T10:11:16.372Z,0.53
2023-05-22T10:12:16.820Z,0.51
2023-05-22T10:13:17.299Z,0.51
2023-05-22T10:14:17.772Z,0.51
2023-05-22T10:15:18.259Z,0.49
2023-05-22T10:16:18.786Z,0.49
2023-05-22T10:17:19.218Z,0.49
2023-05-22T10:18:19.688Z,0.48
2023-05-22T10:19:20.253Z,0.49
2023-05-22T10:20:20.688Z,0.48
2023-05-22T10:21:21.152Z,0.49
2023-05-22T10:22:21.600Z,0.50
2023-05-22T10:23:22.917Z,0.50
2023-05-22T10:24:22.591Z,0.52
2023-05-22T10:25:23.046Z,0.55
2023-05-22T10:26:23.539Z,0.53
2023-05-22T10:27:24.006Z,0.55
2023-05-22T10:28:24.479Z,0.57
2023-05-22T10:29:24.956Z,0.58
2023-05-22T10:30:25.436Z,0.59
2023-05-22T10:31:26.189Z,0.60
2023-05-22T10:32:26.417Z,0.61
2023-05-22T10:33:26.879Z,0.62
2023-05-22T10:34:27.336Z,0.62
2023-05-22T10:35:27.815Z,0.54
2023-05-22T10:36:28.309Z,0.54
2023-05-22T10:37:28.761Z,0.53
2023-05-22T10:38:29.248Z,0.51
2023-05-22T10:39:29.724Z,0.51
2023-05-22T10:40:30.192Z,0.53
2023-05-22T10:41:30.686Z,0.53
2023-05-22T10:42:31.157Z,0.56
2023-05-22T10:43:31.646Z,0.57
2023-05-22T10:44:32.089Z,0.58
2023-05-22T10:45:32.805Z,0.57
2023-05-22T10:46:33.114Z,0.58
2023-05-22T10:47:33.685Z,0.59
2023-05-22T10:48:33.985Z,0.58
2023-05-22T10:49:34.465Z,0.59
2023-05-22T10:50:34.938Z,0.59
2023-05-22T10:51:35.441Z,0.59
2023-05-22T10:52:35.895Z,0.61
2023-05-22T10:53:36.376Z,0.63
2023-05-22T10:54:36.861Z,0.64
2023-05-22T10:55:37.326Z,0.65
2023-05-22T10:56:37.827Z,0.63
2023-05-22T10:57:38.277Z,0.62
2023-05-22T10:58:38.840Z,0.53
2023-05-22T10:59:39.241Z,0.49
2023-05-22T11:00:39.881Z,0.49
2023-05-22T11:01:40.286Z,0.50
2023-05-22T11:02:40.741Z,0.50
2023-05-22T11:03:41.168Z,0.49
2023-05-22T11:04:41.750Z,0.49
2023-05-22T11:05:42.116Z,0.50
2023-05-22T11:06:42.784Z,0.49
2023-05-22T11:07:43.088Z,0.51
2023-05-22T11:08:43.563Z,0.49
2023-05-22T11:09:44.101Z,0.49
2023-05-22T11:10:44.515Z,0.50
2023-05-22T11:11:45.018Z,0.53
2023-05-22T11:12:45.480Z,0.53
2023-05-22T11:13:45.954Z,0.54
2023-05-22T11:14:46.437Z,0.55
2023-05-22T11:15:46.912Z,0.55
2023-05-22T11:16:47.455Z,0.60
2023-05-22T11:17:47.902Z,0.62
2023-05-22T11:18:48.376Z,0.63
2023-05-22T11:19:48.898Z,0.60
2023-05-22T11:20:49.309Z,0.60
2023-05-22T11:21:49.816Z,0.62
2023-05-22T11:22:50.268Z,0.64
2023-05-22T11:23:50.756Z,0.61
2023-05-22T11:24:51.241Z,0.59
2023-05-22T11:25:51.710Z,0.54
2023-05-22T11:26:52.213Z,0.55
2023-05-22T11:27:52.666Z,0.52
2023-05-22T11:28:53.153Z,0.51
2023-05-22T11:29:53.624Z,0.52
2023-05-22T11:30:54.136Z,0.52
2023-05-22T11:31:54.624Z,0.52
2023-05-22T11:32:55.104Z,0.52
2023-05-22T11:33:55.554Z,0.51
2023-05-22T11:34:56.030Z,0.51
2023-05-22T11:35:56.505Z,0.51
2023-05-22T11:36:57.017Z,0.50
2023-05-22T11:37:57.464Z,0.50
2023-05-22T11:38:57.947Z,0.53
2023-05-22T11:39:58.446Z,0.52
2023-05-22T11:40:58.911Z,0.51
2023-05-22T11:41:59.408Z,0.50
2023-05-22T11:42:59.886Z,0.50
2023-05-22T11:44:00.337Z,0.50
2023-05-22T11:45:00.825Z,0.54
2023-05-22T11:46:01.301Z,0.54
2023-05-22T11:47:01.801Z,0.53
2023-05-22T11:48:02.280Z,0.53
2023-05-22T11:49:02.735Z,0.53
2023-05-22T11:50:03.217Z,0.53
2023-05-22T11:51:03.692Z,0.51
2023-05-22T11:52:04.202Z,0.50
2023-05-22T11:53:04.657Z,0.50
2023-05-22T11:54:05.130Z,0.50
2023-05-22T11:55:05.741Z,0.51
2023-05-22T11:56:06.081Z,0.53
2023-05-22T11:57:06.585Z,0.54
2023-05-22T11:58:07.032Z,0.53
2023-05-22T11:59:07.499Z,0.52
2023-05-22T12:00:08.030Z,0.52
2023-05-22T12:01:08.459Z,0.52
2023-05-22T12:02:08.965Z,0.54
2023-05-22T12:03:09.464Z,0.55
2023-05-22T12:04:09.932Z,0.54
2023-05-22T12:05:10.355Z,0.51
2023-05-22T12:06:10.880Z,0.49
2023-05-22T12:07:11.332Z,0.49
2023-05-22T12:08:11.793Z,0.49
2023-05-22T12:09:12.266Z,0.48
2023-05-22T12:10:12.817Z,0.49
2023-05-22T12:11:13.223Z,0.50
2023-05-22T12:12:13.738Z,0.50
2023-05-22T12:13:14.182Z,0.50
2023-05-22T12:14:14.665Z,0.50
2023-05-22T12:15:15.139Z,0.51
2023-05-22T12:16:15.665Z,0.52
2023-05-22T12:17:16.125Z,0.52
2023-05-22T12:18:16.578Z,0.53
2023-05-22T12:19:17.109Z,0.53
2023-05-22T12:20:17.538Z,0.53
2023-05-22T12:21:18.016Z,0.54
2023-05-22T12:22:18.520Z,0.54
2023-05-22T12:23:18.971Z,0.56
2023-05-22T12:24:19.458Z,0.60
2023-05-22T12:25:19.957Z,0.61
2023-05-22T12:26:20.415Z,0.57
2023-05-22T12:27:20.909Z,0.55
2023-05-22T12:28:21.366Z,0.57
2023-05-22T12:29:21.842Z,0.60
2023-05-22T12:30:22.328Z,0.61
2023-05-22T12:31:22.798Z,0.61
2023-05-22T12:32:23.365Z,0.59
2023-05-22T12:33:23.753Z,0.58
2023-05-22T12:34:24.241Z,0.52
2023-05-22T12:35:24.728Z,0.50
2023-05-22T12:36:25.197Z,0.50
2023-05-22T12:37:25.687Z,0.52
2023-05-22T12:38:26.155Z,0.53
2023-05-22T12:39:26.618Z,0.51
2023-05-22T12:40:27.113Z,0.50
2023-05-22T12:41:27.572Z,0.51
2023-05-22T12:42:28.072Z,0.54
2023-05-22T12:43:28.524Z,0.55
2023-05-22T12:44:29.010Z,0.56
2023-05-22T12:45:29.538Z,0.59
2023-05-22T12:46:29.969Z,0.65
2023-05-22T12:47:30.471Z,0.66
2023-05-22T12:48:30.894Z,0.64
2023-05-22T12:49:31.363Z,0.66
2023-05-22T12:50:31.837Z,0.71
2023-05-22T12:51:32.306Z,0.71
2023-05-22T12:52:32.805Z,0.68
2023-05-22T12:53:33.247Z,0.68
2023-05-22T12:54:33.719Z,0.74
2023-05-22T12:55:34.197Z,0.86
2023-05-22T12:56:34.672Z,0.92
2023-05-22T12:57:35.152Z,1.04
2023-05-22T12:58:35.595Z,0.99
2023-05-22T12:59:36.068Z,0.86
2023-05-22T13:00:36.540Z,0.84
2023-05-22T13:01:37.053Z,0.82
2023-05-22T13:02:37.492Z,0.75
2023-05-22T13:03:37.923Z,0.73
2023-05-22T13:04:38.422Z,0.71
2023-05-22T13:05:39.154Z,0.74
2023-05-22T13:06:39.315Z,0.83
2023-05-22T13:07:39.798Z,0.93
2023-05-22T13:08:40.250Z,1.10
2023-05-22T13:09:40.712Z,1.29
2023-05-22T13:10:41.236Z,1.17
2023-05-22T13:11:41.715Z,1.01
2023-05-22T13:12:42.117Z,0.88
2023-05-22T13:13:42.553Z,0.89
2023-05-22T13:14:43.018Z,0.93
2023-05-22T13:15:43.561Z,0.97
2023-05-22T13:16:43.962Z,0.99
2023-05-22T13:17:44.469Z,0.80
2023-05-22T13:18:44.875Z,0.89
2023-05-22T13:19:45.334Z,0.95
2023-05-22T13:20:45.799Z,0.80
2023-05-22T13:21:46.267Z,0.74
2023-05-22T13:22:46.772Z,0.78
2023-05-22T13:23:47.177Z,0.88
2023-05-22T13:24:47.645Z,0.85